sensor_id;sensor_type;location;lat;lon;timestamp;P1;durP1;ratioP1;P2;durP2;ratioP2
10721;SDS011;5412;59.450;18.124;2023-03-14T00:01:23;1.97;;;0.83;;
10721;SDS011;5412;59.450;18.124;2023-03-14T00:03:51;4.00;;;1.17;;
10721;SDS011;5412;59.450;18.124;2023-03-14T00:06:17;2.57;;;1.07;;
10721;SDS011;5412;59.450;18.124;2023-03-14T00:08:43;1.57;;;0.80;;
10721;SDS011;5412;59.450;18.124;2023-03-14T00:11:11;2.77;;;1.20;;
10721;SDS011;5412;59.450;18.124;2023-03-14T00:13:39;4.20;;;1.10;;
10721;SDS011;5412;59.450;18.124;2023-03-14T00:16:06;0.70;;;0.70;;
10721;SDS011;5412;59.450;18.124;2023-03-14T00:18:34;3.20;;;1.13;;
10721;SDS011;5412;59.450;18.124;2023-03-14T00:21:00;4.60;;;1.20;;
10721;SDS011;5412;59.450;18.124;2023-03-14T00:23:28;3.23;;;0.93;;
10721;SDS011;5412;59.450;18.124;2023-03-14T00:25:59;1.73;;;1.00;;
10721;SDS011;5412;59.450;18.124;2023-03-14T00:28:25;0.93;;;0.73;;
10721;SDS011;5412;59.450;18.124;2023-03-14T00:30:51;1.73;;;0.87;;
10721;SDS011;5412;59.450;18.124;2023-03-14T00:33:17;1.50;;;0.80;;
10721;SDS011;5412;59.450;18.124;2023-03-14T00:35:43;4.60;;;1.50;;
10721;SDS011;5412;59.450;18.124;2023-03-14T00:38:16;2.90;;;1.20;;
10721;SDS011;5412;59.450;18.124;2023-03-14T00:40:42;2.87;;;1.23;;
10721;SDS011;5412;59.450;18.124;2023-03-14T00:43:08;2.40;;;0.90;;
10721;SDS011;5412;59.450;18.124;2023-03-14T00:45:33;2.93;;;1.07;;
10721;SDS011;5412;59.450;18.124;2023-03-14T00:48:00;2.90;;;0.90;;
10721;SDS011;5412;59.450;18.124;2023-03-14T00:50:25;1.13;;;0.83;;
10721;SDS011;5412;59.450;18.124;2023-03-14T00:52:51;3.17;;;0.80;;
10721;SDS011;5412;59.450;18.124;2023-03-14T00:55:17;3.87;;;0.90;;
10721;SDS011;5412;59.450;18.124;2023-03-14T00:57:42;1.70;;;0.93;;
10721;SDS011;5412;59.450;18.124;2023-03-14T01:00:08;3.47;;;1.20;;
10721;SDS011;5412;59.450;18.124;2023-03-14T01:02:37;1.80;;;1.10;;
10721;SDS011;5412;59.450;18.124;2023-03-14T01:05:03;2.23;;;0.73;;
10721;SDS011;5412;59.450;18.124;2023-03-14T01:07:29;2.77;;;1.17;;
10721;SDS011;5412;59.450;18.124;2023-03-14T01:09:55;1.93;;;1.00;;
10721;SDS011;5412;59.450;18.124;2023-03-14T01:12:20;2.97;;;1.03;;
10721;SDS011;5412;59.450;18.124;2023-03-14T01:14:46;1.93;;;0.77;;
10721;SDS011;5412;59.450;18.124;2023-03-14T01:17:26;1.23;;;1.00;;
10721;SDS011;5412;59.450;18.124;2023-03-14T01:19:52;4.13;;;0.83;;
10721;SDS011;5412;59.450;18.124;2023-03-14T01:22:18;3.80;;;1.23;;
10721;SDS011;5412;59.450;18.124;2023-03-14T01:24:43;3.13;;;1.13;;
10721;SDS011;5412;59.450;18.124;2023-03-14T01:27:09;2.37;;;0.90;;
10721;SDS011;5412;59.450;18.124;2023-03-14T01:29:35;2.33;;;0.90;;
10721;SDS011;5412;59.450;18.124;2023-03-14T01:32:00;1.93;;;0.70;;
10721;SDS011;5412;59.450;18.124;2023-03-14T01:34:26;2.63;;;0.80;;
10721;SDS011;5412;59.450;18.124;2023-03-14T01:36:52;3.63;;;0.93;;
10721;SDS011;5412;59.450;18.124;2023-03-14T01:39:17;1.30;;;0.60;;
10721;SDS011;5412;59.450;18.124;2023-03-14T01:41:43;1.73;;;0.87;;
10721;SDS011;5412;59.450;18.124;2023-03-14T01:44:10;3.97;;;0.80;;
10721;SDS011;5412;59.450;18.124;2023-03-14T01:49:20;1.40;;;1.23;;
10721;SDS011;5412;59.450;18.124;2023-03-14T01:52:00;2.57;;;0.90;;
10721;SDS011;5412;59.450;18.124;2023-03-14T01:57:14;2.33;;;0.70;;
10721;SDS011;5412;59.450;18.124;2023-03-14T01:59:54;3.37;;;0.93;;
10721;SDS011;5412;59.450;18.124;2023-03-14T02:02:43;2.30;;;0.97;;
10721;SDS011;5412;59.450;18.124;2023-03-14T02:05:11;0.97;;;0.57;;
10721;SDS011;5412;59.450;18.124;2023-03-14T02:07:50;4.50;;;0.80;;
10721;SDS011;5412;59.450;18.124;2023-03-14T02:10:25;2.20;;;0.60;;
10721;SDS011;5412;59.450;18.124;2023-03-14T02:13:01;3.03;;;0.70;;
10721;SDS011;5412;59.450;18.124;2023-03-14T02:15:28;1.37;;;0.50;;
10721;SDS011;5412;59.450;18.124;2023-03-14T02:17:55;0.83;;;0.60;;
10721;SDS011;5412;59.450;18.124;2023-03-14T02:23:17;2.10;;;0.80;;
10721;SDS011;5412;59.450;18.124;2023-03-14T02:26:03;0.70;;;0.70;;
10721;SDS011;5412;59.450;18.124;2023-03-14T02:28:36;3.13;;;0.53;;
10721;SDS011;5412;59.450;18.124;2023-03-14T02:31:01;2.67;;;0.60;;
10721;SDS011;5412;59.450;18.124;2023-03-14T02:33:27;1.80;;;0.50;;
10721;SDS011;5412;59.450;18.124;2023-03-14T02:35:57;1.43;;;0.60;;
10721;SDS011;5412;59.450;18.124;2023-03-14T02:41:17;1.73;;;0.73;;
10721;SDS011;5412;59.450;18.124;2023-03-14T02:43:43;0.90;;;0.40;;
10721;SDS011;5412;59.450;18.124;2023-03-14T02:46:13;1.73;;;0.70;;
10721;SDS011;5412;59.450;18.124;2023-03-14T02:48:45;3.37;;;0.50;;
10721;SDS011;5412;59.450;18.124;2023-03-14T02:51:15;1.23;;;0.70;;
10721;SDS011;5412;59.450;18.124;2023-03-14T02:53:41;1.87;;;0.63;;
10721;SDS011;5412;59.450;18.124;2023-03-14T02:56:08;3.97;;;1.10;;
10721;SDS011;5412;59.450;18.124;2023-03-14T02:58:34;0.80;;;0.40;;
10721;SDS011;5412;59.450;18.124;2023-03-14T03:01:00;4.17;;;0.90;;
10721;SDS011;5412;59.450;18.124;2023-03-14T03:03:26;1.47;;;0.50;;
10721;SDS011;5412;59.450;18.124;2023-03-14T03:05:52;2.23;;;0.47;;
10721;SDS011;5412;59.450;18.124;2023-03-14T03:08:20;1.87;;;0.97;;
10721;SDS011;5412;59.450;18.124;2023-03-14T03:10:48;1.40;;;0.60;;
10721;SDS011;5412;59.450;18.124;2023-03-14T03:13:15;2.07;;;0.67;;
10721;SDS011;5412;59.450;18.124;2023-03-14T03:15:41;1.27;;;0.70;;
10721;SDS011;5412;59.450;18.124;2023-03-14T03:18:07;1.77;;;0.50;;
10721;SDS011;5412;59.450;18.124;2023-03-14T03:20:33;3.37;;;0.60;;
10721;SDS011;5412;59.450;18.124;2023-03-14T03:22:59;2.43;;;0.93;;
10721;SDS011;5412;59.450;18.124;2023-03-14T03:25:25;1.77;;;0.60;;
10721;SDS011;5412;59.450;18.124;2023-03-14T03:27:51;2.87;;;0.60;;
10721;SDS011;5412;59.450;18.124;2023-03-14T03:30:17;0.87;;;0.50;;
10721;SDS011;5412;59.450;18.124;2023-03-14T03:32:43;1.90;;;0.60;;
10721;SDS011;5412;59.450;18.124;2023-03-14T03:35:09;0.63;;;0.50;;
10721;SDS011;5412;59.450;18.124;2023-03-14T03:37:35;1.50;;;0.50;;
10721;SDS011;5412;59.450;18.124;2023-03-14T03:40:01;0.40;;;0.40;;
10721;SDS011;5412;59.450;18.124;2023-03-14T03:42:29;1.27;;;0.70;;
10721;SDS011;5412;59.450;18.124;2023-03-14T03:44:55;1.87;;;0.77;;
10721;SDS011;5412;59.450;18.124;2023-03-14T03:47:21;0.80;;;0.60;;
10721;SDS011;5412;59.450;18.124;2023-03-14T03:49:46;1.00;;;0.50;;
10721;SDS011;5412;59.450;18.124;2023-03-14T03:52:12;1.17;;;0.70;;
10721;SDS011;5412;59.450;18.124;2023-03-14T03:54:38;2.47;;;0.50;;
10721;SDS011;5412;59.450;18.124;2023-03-14T03:57:04;2.30;;;0.57;;
10721;SDS011;5412;59.450;18.124;2023-03-14T03:59:29;1.03;;;0.47;;
10721;SDS011;5412;59.450;18.124;2023-03-14T04:01:55;0.53;;;0.50;;
10721;SDS011;5412;59.450;18.124;2023-03-14T04:04:21;0.90;;;0.50;;
10721;SDS011;5412;59.450;18.124;2023-03-14T04:06:47;1.43;;;0.50;;
10721;SDS011;5412;59.450;18.124;2023-03-14T04:09:12;2.23;;;0.67;;
10721;SDS011;5412;59.450;18.124;2023-03-14T04:11:38;0.93;;;0.60;;
10721;SDS011;5412;59.450;18.124;2023-03-14T04:14:04;3.37;;;0.70;;
10721;SDS011;5412;59.450;18.124;2023-03-14T04:16:30;3.30;;;0.60;;
10721;SDS011;5412;59.450;18.124;2023-03-14T04:18:59;0.80;;;0.50;;
10721;SDS011;5412;59.450;18.124;2023-03-14T04:21:25;4.60;;;0.90;;
10721;SDS011;5412;59.450;18.124;2023-03-14T04:23:51;1.00;;;0.70;;
10721;SDS011;5412;59.450;18.124;2023-03-14T04:26:17;3.73;;;0.77;;
10721;SDS011;5412;59.450;18.124;2023-03-14T04:28:43;4.50;;;1.10;;
10721;SDS011;5412;59.450;18.124;2023-03-14T04:31:09;2.57;;;0.80;;
10721;SDS011;5412;59.450;18.124;2023-03-14T04:33:43;4.00;;;1.00;;
10721;SDS011;5412;59.450;18.124;2023-03-14T04:36:10;1.90;;;0.70;;
10721;SDS011;5412;59.450;18.124;2023-03-14T04:38:36;2.57;;;1.03;;
10721;SDS011;5412;59.450;18.124;2023-03-14T04:41:02;3.97;;;1.17;;
10721;SDS011;5412;59.450;18.124;2023-03-14T04:43:28;1.10;;;0.70;;
10721;SDS011;5412;59.450;18.124;2023-03-14T04:45:54;1.90;;;0.90;;
10721;SDS011;5412;59.450;18.124;2023-03-14T04:48:22;3.20;;;0.77;;
10721;SDS011;5412;59.450;18.124;2023-03-14T04:50:48;2.17;;;0.80;;
10721;SDS011;5412;59.450;18.124;2023-03-14T04:53:15;2.20;;;0.90;;
10721;SDS011;5412;59.450;18.124;2023-03-14T04:55:42;1.60;;;0.80;;
10721;SDS011;5412;59.450;18.124;2023-03-14T04:58:12;1.77;;;0.87;;
10721;SDS011;5412;59.450;18.124;2023-03-14T05:00:38;2.73;;;0.70;;
10721;SDS011;5412;59.450;18.124;2023-03-14T05:03:03;1.10;;;0.80;;
10721;SDS011;5412;59.450;18.124;2023-03-14T05:05:29;3.07;;;1.07;;
10721;SDS011;5412;59.450;18.124;2023-03-14T05:07:55;2.80;;;1.23;;
10721;SDS011;5412;59.450;18.124;2023-03-14T05:10:21;2.97;;;0.80;;
10721;SDS011;5412;59.450;18.124;2023-03-14T05:12:46;1.97;;;0.70;;
10721;SDS011;5412;59.450;18.124;2023-03-14T05:15:12;2.13;;;0.83;;
10721;SDS011;5412;59.450;18.124;2023-03-14T05:17:38;3.20;;;0.73;;
10721;SDS011;5412;59.450;18.124;2023-03-14T05:20:04;3.83;;;1.00;;
10721;SDS011;5412;59.450;18.124;2023-03-14T05:22:48;1.53;;;0.80;;
10721;SDS011;5412;59.450;18.124;2023-03-14T05:25:14;3.63;;;1.20;;
10721;SDS011;5412;59.450;18.124;2023-03-14T05:27:39;5.97;;;1.00;;
10721;SDS011;5412;59.450;18.124;2023-03-14T05:30:05;1.93;;;1.00;;
10721;SDS011;5412;59.450;18.124;2023-03-14T05:32:32;3.45;;;1.00;;
10721;SDS011;5412;59.450;18.124;2023-03-14T05:34:57;2.57;;;0.83;;
10721;SDS011;5412;59.450;18.124;2023-03-14T05:37:27;2.97;;;0.93;;
10721;SDS011;5412;59.450;18.124;2023-03-14T05:39:53;3.63;;;1.10;;
10721;SDS011;5412;59.450;18.124;2023-03-14T05:42:19;2.00;;;0.90;;
10721;SDS011;5412;59.450;18.124;2023-03-14T05:44:45;1.17;;;0.70;;
10721;SDS011;5412;59.450;18.124;2023-03-14T05:47:11;2.60;;;1.00;;
10721;SDS011;5412;59.450;18.124;2023-03-14T05:49:36;2.00;;;0.93;;
10721;SDS011;5412;59.450;18.124;2023-03-14T05:52:02;3.20;;;1.13;;
10721;SDS011;5412;59.450;18.124;2023-03-14T05:54:28;2.70;;;1.00;;
10721;SDS011;5412;59.450;18.124;2023-03-14T05:56:54;3.57;;;0.93;;
10721;SDS011;5412;59.450;18.124;2023-03-14T05:59:20;5.00;;;0.80;;
10721;SDS011;5412;59.450;18.124;2023-03-14T06:01:45;2.73;;;1.00;;
10721;SDS011;5412;59.450;18.124;2023-03-14T06:04:11;3.17;;;0.83;;
10721;SDS011;5412;59.450;18.124;2023-03-14T06:06:38;2.13;;;0.83;;
10721;SDS011;5412;59.450;18.124;2023-03-14T06:09:04;2.93;;;0.80;;
10721;SDS011;5412;59.450;18.124;2023-03-14T06:11:29;3.90;;;0.90;;
10721;SDS011;5412;59.450;18.124;2023-03-14T06:13:55;5.60;;;1.07;;
10721;SDS011;5412;59.450;18.124;2023-03-14T06:16:21;3.43;;;0.90;;
10721;SDS011;5412;59.450;18.124;2023-03-14T06:18:46;4.37;;;1.07;;
10721;SDS011;5412;59.450;18.124;2023-03-14T06:21:14;6.23;;;1.03;;
10721;SDS011;5412;59.450;18.124;2023-03-14T06:23:40;2.73;;;0.90;;
10721;SDS011;5412;59.450;18.124;2023-03-14T06:26:06;3.60;;;0.93;;
10721;SDS011;5412;59.450;18.124;2023-03-14T06:28:32;1.80;;;0.80;;
10721;SDS011;5412;59.450;18.124;2023-03-14T06:30:58;1.10;;;0.60;;
10721;SDS011;5412;59.450;18.124;2023-03-14T06:33:25;3.70;;;0.70;;
10721;SDS011;5412;59.450;18.124;2023-03-14T06:35:50;1.83;;;0.90;;
10721;SDS011;5412;59.450;18.124;2023-03-14T06:38:16;6.93;;;1.17;;
10721;SDS011;5412;59.450;18.124;2023-03-14T06:40:42;1.17;;;0.70;;
10721;SDS011;5412;59.450;18.124;2023-03-14T06:43:08;4.00;;;1.17;;
10721;SDS011;5412;59.450;18.124;2023-03-14T06:45:33;3.03;;;0.90;;
10721;SDS011;5412;59.450;18.124;2023-03-14T06:47:59;3.27;;;1.00;;
10721;SDS011;5412;59.450;18.124;2023-03-14T06:50:25;3.30;;;1.00;;
10721;SDS011;5412;59.450;18.124;2023-03-14T06:52:51;1.93;;;0.60;;
10721;SDS011;5412;59.450;18.124;2023-03-14T06:55:16;1.77;;;1.00;;
10721;SDS011;5412;59.450;18.124;2023-03-14T06:57:42;3.40;;;0.60;;
10721;SDS011;5412;59.450;18.124;2023-03-14T07:00:09;2.23;;;0.80;;
10721;SDS011;5412;59.450;18.124;2023-03-14T07:02:36;3.53;;;0.80;;
10721;SDS011;5412;59.450;18.124;2023-03-14T07:05:01;3.10;;;0.87;;
10721;SDS011;5412;59.450;18.124;2023-03-14T07:07:28;3.10;;;0.70;;
10721;SDS011;5412;59.450;18.124;2023-03-14T07:09:54;3.23;;;0.90;;
10721;SDS011;5412;59.450;18.124;2023-03-14T07:12:19;1.93;;;0.80;;
10721;SDS011;5412;59.450;18.124;2023-03-14T07:14:45;3.43;;;0.80;;
10721;SDS011;5412;59.450;18.124;2023-03-14T07:17:11;3.23;;;0.80;;
10721;SDS011;5412;59.450;18.124;2023-03-14T07:19:36;4.27;;;0.70;;
10721;SDS011;5412;59.450;18.124;2023-03-14T07:22:03;3.13;;;1.00;;
10721;SDS011;5412;59.450;18.124;2023-03-14T07:24:29;2.43;;;0.67;;
10721;SDS011;5412;59.450;18.124;2023-03-14T07:26:55;5.67;;;1.20;;
10721;SDS011;5412;59.450;18.124;2023-03-14T07:29:21;3.37;;;0.90;;
10721;SDS011;5412;59.450;18.124;2023-03-14T07:31:47;2.00;;;0.40;;
10721;SDS011;5412;59.450;18.124;2023-03-14T07:34:12;1.80;;;0.60;;
10721;SDS011;5412;59.450;18.124;2023-03-14T07:36:38;1.40;;;0.43;;
10721;SDS011;5412;59.450;18.124;2023-03-14T07:39:04;2.47;;;0.73;;
10721;SDS011;5412;59.450;18.124;2023-03-14T07:41:30;2.13;;;0.50;;
10721;SDS011;5412;59.450;18.124;2023-03-14T07:43:56;2.10;;;0.70;;
10721;SDS011;5412;59.450;18.124;2023-03-14T07:46:22;7.27;;;0.80;;
10721;SDS011;5412;59.450;18.124;2023-03-14T07:48:48;1.67;;;0.50;;
10721;SDS011;5412;59.450;18.124;2023-03-14T07:51:14;1.10;;;0.40;;
10721;SDS011;5412;59.450;18.124;2023-03-14T07:53:39;1.03;;;0.53;;
10721;SDS011;5412;59.450;18.124;2023-03-14T07:56:05;0.97;;;0.47;;
10721;SDS011;5412;59.450;18.124;2023-03-14T07:58:31;0.50;;;0.40;;
10721;SDS011;5412;59.450;18.124;2023-03-14T08:00:59;1.53;;;0.30;;
10721;SDS011;5412;59.450;18.124;2023-03-14T08:03:24;0.27;;;0.27;;
10721;SDS011;5412;59.450;18.124;2023-03-14T08:05:50;1.90;;;0.50;;
10721;SDS011;5412;59.450;18.124;2023-03-14T08:08:17;0.50;;;0.50;;
10721;SDS011;5412;59.450;18.124;2023-03-14T08:10:43;0.37;;;0.37;;
10721;SDS011;5412;59.450;18.124;2023-03-14T08:13:09;0.20;;;0.20;;
10721;SDS011;5412;59.450;18.124;2023-03-14T08:15:35;0.90;;;0.67;;
10721;SDS011;5412;59.450;18.124;2023-03-14T08:18:02;2.33;;;0.40;;
10721;SDS011;5412;59.450;18.124;2023-03-14T08:20:28;0.47;;;0.30;;
10721;SDS011;5412;59.450;18.124;2023-03-14T08:22:58;0.40;;;0.40;;
10721;SDS011;5412;59.450;18.124;2023-03-14T08:25:25;0.30;;;0.30;;
10721;SDS011;5412;59.450;18.124;2023-03-14T08:27:52;0.40;;;0.40;;
10721;SDS011;5412;59.450;18.124;2023-03-14T08:30:18;1.17;;;0.60;;
10721;SDS011;5412;59.450;18.124;2023-03-14T08:32:45;0.47;;;0.47;;
10721;SDS011;5412;59.450;18.124;2023-03-14T08:35:11;0.20;;;0.20;;
10721;SDS011;5412;59.450;18.124;2023-03-14T08:37:37;0.40;;;0.40;;
10721;SDS011;5412;59.450;18.124;2023-03-14T08:40:03;0.33;;;0.30;;
10721;SDS011;5412;59.450;18.124;2023-03-14T08:42:35;0.30;;;0.30;;
10721;SDS011;5412;59.450;18.124;2023-03-14T08:45:01;0.33;;;0.30;;
10721;SDS011;5412;59.450;18.124;2023-03-14T08:47:28;0.53;;;0.37;;
10721;SDS011;5412;59.450;18.124;2023-03-14T08:49:53;0.70;;;0.60;;
10721;SDS011;5412;59.450;18.124;2023-03-14T08:52:19;1.90;;;1.03;;
10721;SDS011;5412;59.450;18.124;2023-03-14T08:54:45;0.30;;;0.30;;
10721;SDS011;5412;59.450;18.124;2023-03-14T08:57:11;0.87;;;0.37;;
10721;SDS011;5412;59.450;18.124;2023-03-14T08:59:37;1.20;;;0.40;;
10721;SDS011;5412;59.450;18.124;2023-03-14T09:02:03;0.40;;;0.40;;
10721;SDS011;5412;59.450;18.124;2023-03-14T09:04:32;0.37;;;0.30;;
10721;SDS011;5412;59.450;18.124;2023-03-14T09:06:58;0.20;;;0.20;;
10721;SDS011;5412;59.450;18.124;2023-03-14T09:09:25;0.33;;;0.33;;
10721;SDS011;5412;59.450;18.124;2023-03-14T09:11:55;0.50;;;0.40;;
10721;SDS011;5412;59.450;18.124;2023-03-14T09:14:21;0.53;;;0.30;;
10721;SDS011;5412;59.450;18.124;2023-03-14T09:16:47;0.40;;;0.40;;
10721;SDS011;5412;59.450;18.124;2023-03-14T09:19:13;0.30;;;0.30;;
10721;SDS011;5412;59.450;18.124;2023-03-14T09:21:39;0.30;;;0.30;;
10721;SDS011;5412;59.450;18.124;2023-03-14T09:24:05;0.40;;;0.37;;
10721;SDS011;5412;59.450;18.124;2023-03-14T09:26:31;0.20;;;0.20;;
10721;SDS011;5412;59.450;18.124;2023-03-14T09:28:56;0.57;;;0.40;;
10721;SDS011;5412;59.450;18.124;2023-03-14T09:31:22;0.40;;;0.40;;
10721;SDS011;5412;59.450;18.124;2023-03-14T09:33:48;0.40;;;0.40;;
10721;SDS011;5412;59.450;18.124;2023-03-14T09:36:14;0.20;;;0.20;;
10721;SDS011;5412;59.450;18.124;2023-03-14T09:38:40;0.47;;;0.37;;
10721;SDS011;5412;59.450;18.124;2023-03-14T09:41:13;0.23;;;0.23;;
10721;SDS011;5412;59.450;18.124;2023-03-14T09:43:39;0.33;;;0.33;;
10721;SDS011;5412;59.450;18.124;2023-03-14T09:46:08;0.47;;;0.47;;
10721;SDS011;5412;59.450;18.124;2023-03-14T09:48:35;0.30;;;0.30;;
10721;SDS011;5412;59.450;18.124;2023-03-14T09:51:05;0.20;;;0.20;;
10721;SDS011;5412;59.450;18.124;2023-03-14T09:53:39;0.20;;;0.20;;
10721;SDS011;5412;59.450;18.124;2023-03-14T09:56:18;0.30;;;0.30;;
10721;SDS011;5412;59.450;18.124;2023-03-14T09:58:55;3.57;;;1.63;;
10721;SDS011;5412;59.450;18.124;2023-03-14T10:01:26;0.97;;;0.60;;
10721;SDS011;5412;59.450;18.124;2023-03-14T10:03:57;0.30;;;0.30;;
10721;SDS011;5412;59.450;18.124;2023-03-14T10:06:29;0.50;;;0.43;;
10721;SDS011;5412;59.450;18.124;2023-03-14T10:08:56;0.30;;;0.30;;
10721;SDS011;5412;59.450;18.124;2023-03-14T10:11:22;0.30;;;0.30;;
10721;SDS011;5412;59.450;18.124;2023-03-14T10:14:10;0.30;;;0.30;;
10721;SDS011;5412;59.450;18.124;2023-03-14T10:16:41;0.53;;;0.53;;
10721;SDS011;5412;59.450;18.124;2023-03-14T10:19:15;0.30;;;0.30;;
10721;SDS011;5412;59.450;18.124;2023-03-14T10:21:43;0.60;;;0.60;;
10721;SDS011;5412;59.450;18.124;2023-03-14T10:24:19;0.50;;;0.50;;
10721;SDS011;5412;59.450;18.124;2023-03-14T10:26:53;0.30;;;0.30;;
10721;SDS011;5412;59.450;18.124;2023-03-14T10:29:20;0.30;;;0.30;;
10721;SDS011;5412;59.450;18.124;2023-03-14T10:31:51;0.63;;;0.40;;
10721;SDS011;5412;59.450;18.124;2023-03-14T10:34:21;0.40;;;0.40;;
10721;SDS011;5412;59.450;18.124;2023-03-14T10:36:59;0.40;;;0.40;;
10721;SDS011;5412;59.450;18.124;2023-03-14T10:39:50;1.30;;;0.40;;
10721;SDS011;5412;59.450;18.124;2023-03-14T10:42:31;1.27;;;0.40;;
10721;SDS011;5412;59.450;18.124;2023-03-14T10:45:47;0.77;;;0.37;;
10721;SDS011;5412;59.450;18.124;2023-03-14T10:50:49;0.40;;;0.40;;
10721;SDS011;5412;59.450;18.124;2023-03-14T10:53:21;0.47;;;0.47;;
10721;SDS011;5412;59.450;18.124;2023-03-14T10:55:47;0.40;;;0.40;;
10721;SDS011;5412;59.450;18.124;2023-03-14T10:58:21;0.40;;;0.40;;
10721;SDS011;5412;59.450;18.124;2023-03-14T11:01:11;0.73;;;0.40;;
10721;SDS011;5412;59.450;18.124;2023-03-14T11:03:58;0.30;;;0.30;;
10721;SDS011;5412;59.450;18.124;2023-03-14T11:06:28;0.43;;;0.40;;
10721;SDS011;5412;59.450;18.124;2023-03-14T11:12:30;0.70;;;0.60;;
10721;SDS011;5412;59.450;18.124;2023-03-14T11:15:04;0.30;;;0.30;;
10721;SDS011;5412;59.450;18.124;2023-03-14T11:17:57;0.53;;;0.53;;
10721;SDS011;5412;59.450;18.124;2023-03-14T11:20:45;0.40;;;0.40;;
10721;SDS011;5412;59.450;18.124;2023-03-14T11:26:42;0.27;;;0.27;;
10721;SDS011;5412;59.450;18.124;2023-03-14T11:31:43;1.07;;;0.50;;
10721;SDS011;5412;59.450;18.124;2023-03-14T11:34:15;0.40;;;0.40;;
10721;SDS011;5412;59.450;18.124;2023-03-14T11:36:48;0.73;;;0.40;;
10721;SDS011;5412;59.450;18.124;2023-03-14T11:39:19;0.40;;;0.30;;
10721;SDS011;5412;59.450;18.124;2023-03-14T11:41:46;0.40;;;0.40;;
10721;SDS011;5412;59.450;18.124;2023-03-14T11:44:20;0.30;;;0.30;;
10721;SDS011;5412;59.450;18.124;2023-03-14T11:49:31;1.37;;;0.40;;
10721;SDS011;5412;59.450;18.124;2023-03-14T11:51:59;0.73;;;0.43;;
10721;SDS011;5412;59.450;18.124;2023-03-14T11:57:12;0.30;;;0.30;;
10721;SDS011;5412;59.450;18.124;2023-03-14T11:59:55;0.50;;;0.50;;
10721;SDS011;5412;59.450;18.124;2023-03-14T12:13:02;0.30;;;0.30;;
10721;SDS011;5412;59.450;18.124;2023-03-14T12:15:28;0.40;;;0.40;;
10721;SDS011;5412;59.450;18.124;2023-03-14T12:17:54;0.50;;;0.50;;
10721;SDS011;5412;59.450;18.124;2023-03-14T12:20:22;0.40;;;0.40;;
10721;SDS011;5412;59.450;18.124;2023-03-14T12:23:02;0.30;;;0.30;;
10721;SDS011;5412;59.450;18.124;2023-03-14T12:25:30;0.73;;;0.40;;
10721;SDS011;5412;59.450;18.124;2023-03-14T12:30:45;0.40;;;0.40;;
10721;SDS011;5412;59.450;18.124;2023-03-14T12:33:11;0.30;;;0.30;;
10721;SDS011;5412;59.450;18.124;2023-03-14T12:35:49;0.30;;;0.30;;
10721;SDS011;5412;59.450;18.124;2023-03-14T12:43:34;0.30;;;0.30;;
10721;SDS011;5412;59.450;18.124;2023-03-14T12:49:04;0.80;;;0.37;;
10721;SDS011;5412;59.450;18.124;2023-03-14T12:51:40;0.50;;;0.50;;
10721;SDS011;5412;59.450;18.124;2023-03-14T12:57:18;0.40;;;0.40;;
10721;SDS011;5412;59.450;18.124;2023-03-14T13:08:33;0.60;;;0.40;;
10721;SDS011;5412;59.450;18.124;2023-03-14T13:11:08;1.50;;;0.50;;
10721;SDS011;5412;59.450;18.124;2023-03-14T13:13:35;0.43;;;0.43;;
10721;SDS011;5412;59.450;18.124;2023-03-14T13:16:09;1.27;;;0.50;;
10721;SDS011;5412;59.450;18.124;2023-03-14T13:18:41;0.40;;;0.40;;
10721;SDS011;5412;59.450;18.124;2023-03-14T13:21:13;0.40;;;0.40;;
10721;SDS011;5412;59.450;18.124;2023-03-14T13:23:59;0.40;;;0.40;;
10721;SDS011;5412;59.450;18.124;2023-03-14T13:26:43;0.50;;;0.50;;
10721;SDS011;5412;59.450;18.124;2023-03-14T13:29:30;1.07;;;0.60;;
10721;SDS011;5412;59.450;18.124;2023-03-14T13:32:13;1.13;;;0.60;;
10721;SDS011;5412;59.450;18.124;2023-03-14T13:34:45;0.77;;;0.50;;
10721;SDS011;5412;59.450;18.124;2023-03-14T13:37:17;1.70;;;0.70;;
10721;SDS011;5412;59.450;18.124;2023-03-14T13:39:50;0.70;;;0.70;;
10721;SDS011;5412;59.450;18.124;2023-03-14T13:42:18;0.83;;;0.63;;
10721;SDS011;5412;59.450;18.124;2023-03-14T13:44:44;0.43;;;0.43;;
10721;SDS011;5412;59.450;18.124;2023-03-14T13:47:12;1.90;;;0.73;;
10721;SDS011;5412;59.450;18.124;2023-03-14T13:49:41;1.53;;;0.50;;
10721;SDS011;5412;59.450;18.124;2023-03-14T13:54:53;0.70;;;0.50;;
10721;SDS011;5412;59.450;18.124;2023-03-14T13:57:20;0.57;;;0.50;;
10721;SDS011;5412;59.450;18.124;2023-03-14T13:59:57;0.53;;;0.50;;
10721;SDS011;5412;59.450;18.124;2023-03-14T14:02:37;0.43;;;0.43;;
10721;SDS011;5412;59.450;18.124;2023-03-14T14:05:04;1.87;;;0.47;;
10721;SDS011;5412;59.450;18.124;2023-03-14T14:07:30;0.43;;;0.43;;
10721;SDS011;5412;59.450;18.124;2023-03-14T14:09:57;0.53;;;0.53;;
10721;SDS011;5412;59.450;18.124;2023-03-14T14:12:27;1.23;;;0.50;;
10721;SDS011;5412;59.450;18.124;2023-03-14T14:14:58;0.63;;;0.60;;
10721;SDS011;5412;59.450;18.124;2023-03-14T14:17:58;0.77;;;0.60;;
10721;SDS011;5412;59.450;18.124;2023-03-14T14:20:37;0.80;;;0.73;;
10721;SDS011;5412;59.450;18.124;2023-03-14T14:23:13;1.83;;;0.70;;
10721;SDS011;5412;59.450;18.124;2023-03-14T14:25:44;1.30;;;1.07;;
10721;SDS011;5412;59.450;18.124;2023-03-14T14:28:28;0.50;;;0.50;;
10721;SDS011;5412;59.450;18.124;2023-03-14T14:33:54;1.37;;;0.50;;
10721;SDS011;5412;59.450;18.124;2023-03-14T14:36:40;1.30;;;1.00;;
10721;SDS011;5412;59.450;18.124;2023-03-14T14:41:47;0.70;;;0.70;;
10721;SDS011;5412;59.450;18.124;2023-03-14T14:44:17;0.70;;;0.70;;
10721;SDS011;5412;59.450;18.124;2023-03-14T14:46:53;3.20;;;0.90;;
10721;SDS011;5412;59.450;18.124;2023-03-14T14:49:20;2.43;;;0.97;;
10721;SDS011;5412;59.450;18.124;2023-03-14T14:51:49;0.77;;;0.70;;
10721;SDS011;5412;59.450;18.124;2023-03-14T14:54:17;1.37;;;0.80;;
10721;SDS011;5412;59.450;18.124;2023-03-14T14:56:48;0.67;;;0.60;;
10721;SDS011;5412;59.450;18.124;2023-03-14T14:59:26;0.60;;;0.60;;
10721;SDS011;5412;59.450;18.124;2023-03-14T15:02:00;1.23;;;0.50;;
10721;SDS011;5412;59.450;18.124;2023-03-14T15:04:29;0.80;;;0.80;;
10721;SDS011;5412;59.450;18.124;2023-03-14T15:06:56;0.93;;;0.93;;
10721;SDS011;5412;59.450;18.124;2023-03-14T15:09:22;1.10;;;1.00;;
10721;SDS011;5412;59.450;18.124;2023-03-14T15:11:49;0.93;;;0.80;;
10721;SDS011;5412;59.450;18.124;2023-03-14T15:14:15;1.73;;;1.17;;
10721;SDS011;5412;59.450;18.124;2023-03-14T15:16:41;1.13;;;1.00;;
10721;SDS011;5412;59.450;18.124;2023-03-14T15:19:20;1.73;;;0.90;;
10721;SDS011;5412;59.450;18.124;2023-03-14T15:21:49;0.93;;;0.87;;
10721;SDS011;5412;59.450;18.124;2023-03-14T15:24:15;0.77;;;0.77;;
10721;SDS011;5412;59.450;18.124;2023-03-14T15:26:41;0.90;;;0.90;;
10721;SDS011;5412;59.450;18.124;2023-03-14T15:29:09;0.70;;;0.70;;
10721;SDS011;5412;59.450;18.124;2023-03-14T15:31:37;0.70;;;0.70;;
10721;SDS011;5412;59.450;18.124;2023-03-14T15:34:04;0.80;;;0.73;;
10721;SDS011;5412;59.450;18.124;2023-03-14T15:36:31;1.67;;;1.20;;
10721;SDS011;5412;59.450;18.124;2023-03-14T15:38:57;6.53;;;3.47;;
10721;SDS011;5412;59.450;18.124;2023-03-14T15:41:25;2.67;;;1.53;;
10721;SDS011;5412;59.450;18.124;2023-03-14T15:43:51;0.60;;;0.60;;
10721;SDS011;5412;59.450;18.124;2023-03-14T15:46:17;0.53;;;0.53;;
10721;SDS011;5412;59.450;18.124;2023-03-14T15:48:46;0.60;;;0.60;;
10721;SDS011;5412;59.450;18.124;2023-03-14T15:51:13;0.50;;;0.50;;
10721;SDS011;5412;59.450;18.124;2023-03-14T15:53:39;0.87;;;0.63;;
10721;SDS011;5412;59.450;18.124;2023-03-14T15:56:06;0.60;;;0.60;;
10721;SDS011;5412;59.450;18.124;2023-03-14T15:58:35;0.50;;;0.50;;
10721;SDS011;5412;59.450;18.124;2023-03-14T16:01:05;0.50;;;0.50;;
10721;SDS011;5412;59.450;18.124;2023-03-14T16:03:34;0.70;;;0.70;;
10721;SDS011;5412;59.450;18.124;2023-03-14T16:06:00;1.33;;;0.70;;
10721;SDS011;5412;59.450;18.124;2023-03-14T16:08:27;0.70;;;0.70;;